sensor_id;sensor_type;location;lat;lon;timestamp;P1;durP1;ratioP1;P2;durP2;ratioP2
58972;SDS011;44750;52.040;7.472;2022-08-21T00:03:32;95.63;;;87.97;;
58972;SDS011;44750;52.040;7.472;2022-08-21T00:08:34;197.07;;;181.35;;
58972;SDS011;44750;52.040;7.472;2022-08-21T00:13:35;192.63;;;177.73;;
58972;SDS011;44750;52.040;7.472;2022-08-21T00:18:35;197.70;;;182.27;;
58972;SDS011;44750;52.040;7.472;2022-08-21T00:23:36;175.60;;;161.75;;
58972;SDS011;44750;52.040;7.472;2022-08-21T00:28:36;164.88;;;151.68;;
58972;SDS011;44750;52.040;7.472;2022-08-21T00:33:36;162.82;;;150.23;;
58972;SDS011;44750;52.040;7.472;2022-08-21T00:38:37;161.25;;;147.95;;
58972;SDS011;44750;52.040;7.472;2022-08-21T00:43:38;144.67;;;133.17;;
58972;SDS011;44750;52.040;7.472;2022-08-21T00:48:39;22.55;;;14.77;;
58972;SDS011;44750;52.040;7.472;2022-08-21T00:53:40;17.65;;;15.60;;
58972;SDS011;44750;52.040;7.472;2022-08-21T00:58:43;23.50;;;16.15;;
58972;SDS011;44750;52.040;7.472;2022-08-21T01:03:45;18.00;;;16.10;;
58972;SDS011;44750;52.040;7.472;2022-08-21T01:08:46;18.45;;;15.32;;
58972;SDS011;44750;52.040;7.472;2022-08-21T01:13:47;18.98;;;16.88;;
58972;SDS011;44750;52.040;7.472;2022-08-21T01:18:47;20.00;;;16.23;;
58972;SDS011;44750;52.040;7.472;2022-08-21T01:23:49;16.63;;;14.48;;
58972;SDS011;44750;52.040;7.472;2022-08-21T01:34:22;17.58;;;14.60;;
58972;SDS011;44750;52.040;7.472;2022-08-21T01:39:23;16.70;;;14.73;;
58972;SDS011;44750;52.040;7.472;2022-08-21T01:44:23;16.45;;;13.05;;
58972;SDS011;44750;52.040;7.472;2022-08-21T01:49:24;16.35;;;14.15;;
58972;SDS011;44750;52.040;7.472;2022-08-21T01:54:25;18.42;;;13.05;;
58972;SDS011;44750;52.040;7.472;2022-08-21T01:59:26;19.50;;;11.63;;
58972;SDS011;44750;52.040;7.472;2022-08-21T02:04:27;13.50;;;10.68;;
58972;SDS011;44750;52.040;7.472;2022-08-21T02:09:27;17.25;;;10.23;;
58972;SDS011;44750;52.040;7.472;2022-08-21T02:14:28;15.23;;;10.68;;
58972;SDS011;44750;52.040;7.472;2022-08-21T02:19:28;13.52;;;9.65;;
58972;SDS011;44750;52.040;7.472;2022-08-21T02:24:28;13.27;;;9.50;;
58972;SDS011;44750;52.040;7.472;2022-08-21T02:29:28;13.80;;;9.45;;
58972;SDS011;44750;52.040;7.472;2022-08-21T02:34:29;11.77;;;8.70;;
58972;SDS011;44750;52.040;7.472;2022-08-21T02:39:29;14.50;;;9.10;;
58972;SDS011;44750;52.040;7.472;2022-08-21T02:44:29;12.32;;;9.20;;
58972;SDS011;44750;52.040;7.472;2022-08-21T02:49:29;18.67;;;9.88;;
58972;SDS011;44750;52.040;7.472;2022-08-21T02:54:30;13.57;;;9.45;;
58972;SDS011;44750;52.040;7.472;2022-08-21T02:59:30;14.15;;;10.18;;
58972;SDS011;44750;52.040;7.472;2022-08-21T03:04:30;14.60;;;10.35;;
58972;SDS011;44750;52.040;7.472;2022-08-21T03:09:32;16.15;;;11.57;;
58972;SDS011;44750;52.040;7.472;2022-08-21T03:14:32;24.25;;;14.07;;
58972;SDS011;44750;52.040;7.472;2022-08-21T03:19:33;17.30;;;12.25;;
58972;SDS011;44750;52.040;7.472;2022-08-21T03:24:34;40.80;;;36.95;;
58972;SDS011;44750;52.040;7.472;2022-08-21T03:29:34;19.88;;;12.98;;
58972;SDS011;44750;52.040;7.472;2022-08-21T03:34:35;21.63;;;12.32;;
58972;SDS011;44750;52.040;7.472;2022-08-21T03:39:37;19.55;;;13.13;;
58972;SDS011;44750;52.040;7.472;2022-08-21T03:44:37;17.52;;;10.15;;
58972;SDS011;44750;52.040;7.472;2022-08-21T03:49:38;14.18;;;7.80;;
58972;SDS011;44750;52.040;7.472;2022-08-21T03:54:39;14.43;;;7.93;;
58972;SDS011;44750;52.040;7.472;2022-08-21T03:59:39;12.70;;;8.10;;
58972;SDS011;44750;52.040;7.472;2022-08-21T04:04:39;19.13;;;8.90;;
58972;SDS011;44750;52.040;7.472;2022-08-21T04:09:40;12.65;;;8.35;;
58972;SDS011;44750;52.040;7.472;2022-08-21T04:14:40;13.23;;;8.63;;
58972;SDS011;44750;52.040;7.472;2022-08-21T04:19:40;11.50;;;7.57;;
58972;SDS011;44750;52.040;7.472;2022-08-21T04:24:40;16.10;;;7.85;;
58972;SDS011;44750;52.040;7.472;2022-08-21T04:29:41;13.70;;;7.87;;
58972;SDS011;44750;52.040;7.472;2022-08-21T04:34:41;13.43;;;8.48;;
58972;SDS011;44750;52.040;7.472;2022-08-21T04:39:41;13.65;;;8.00;;
58972;SDS011;44750;52.040;7.472;2022-08-21T04:44:42;16.67;;;9.63;;
58972;SDS011;44750;52.040;7.472;2022-08-21T04:49:42;18.08;;;10.48;;
58972;SDS011;44750;52.040;7.472;2022-08-21T04:54:44;16.98;;;9.60;;
58972;SDS011;44750;52.040;7.472;2022-08-21T04:59:57;13.25;;;9.70;;
58972;SDS011;44750;52.040;7.472;2022-08-21T05:04:57;17.30;;;9.67;;
58972;SDS011;44750;52.040;7.472;2022-08-21T05:09:58;17.60;;;8.57;;
58972;SDS011;44750;52.040;7.472;2022-08-21T05:15:00;19.25;;;8.02;;
58972;SDS011;44750;52.040;7.472;2022-08-21T05:20:00;18.37;;;8.17;;
58972;SDS011;44750;52.040;7.472;2022-08-21T05:25:00;13.07;;;7.93;;
58972;SDS011;44750;52.040;7.472;2022-08-21T05:30:01;14.13;;;8.02;;
58972;SDS011;44750;52.040;7.472;2022-08-21T05:35:06;20.65;;;8.98;;
58972;SDS011;44750;52.040;7.472;2022-08-21T05:40:08;18.08;;;8.77;;
58972;SDS011;44750;52.040;7.472;2022-08-21T05:45:09;13.90;;;8.32;;
58972;SDS011;44750;52.040;7.472;2022-08-21T05:50:09;16.63;;;8.40;;
58972;SDS011;44750;52.040;7.472;2022-08-21T05:55:10;15.35;;;8.43;;
58972;SDS011;44750;52.040;7.472;2022-08-21T06:00:10;17.00;;;8.65;;
58972;SDS011;44750;52.040;7.472;2022-08-21T06:05:11;20.70;;;8.70;;
58972;SDS011;44750;52.040;7.472;2022-08-21T06:10:11;16.35;;;8.77;;
58972;SDS011;44750;52.040;7.472;2022-08-21T06:15:12;13.27;;;8.40;;
58972;SDS011;44750;52.040;7.472;2022-08-21T06:20:12;14.45;;;8.00;;
58972;SDS011;44750;52.040;7.472;2022-08-21T06:25:12;15.82;;;8.25;;
58972;SDS011;44750;52.040;7.472;2022-08-21T06:30:13;12.38;;;7.80;;
58972;SDS011;44750;52.040;7.472;2022-08-21T06:35:14;15.68;;;7.55;;
58972;SDS011;44750;52.040;7.472;2022-08-21T06:40:14;14.35;;;7.82;;
58972;SDS011;44750;52.040;7.472;2022-08-21T06:45:14;14.30;;;7.20;;
58972;SDS011;44750;52.040;7.472;2022-08-21T06:50:15;10.30;;;7.67;;
58972;SDS011;44750;52.040;7.472;2022-08-21T06:55:15;11.68;;;6.28;;
58972;SDS011;44750;52.040;7.472;2022-08-21T07:00:15;10.85;;;7.10;;
58972;SDS011;44750;52.040;7.472;2022-08-21T07:05:16;18.65;;;6.65;;
58972;SDS011;44750;52.040;7.472;2022-08-21T07:10:19;9.10;;;5.25;;
58972;SDS011;44750;52.040;7.472;2022-08-21T07:15:19;7.40;;;4.47;;
58972;SDS011;44750;52.040;7.472;2022-08-21T07:20:20;8.90;;;4.60;;
58972;SDS011;44750;52.040;7.472;2022-08-21T07:25:20;5.20;;;3.47;;
58972;SDS011;44750;52.040;7.472;2022-08-21T07:30:21;7.23;;;4.17;;
58972;SDS011;44750;52.040;7.472;2022-08-21T07:35:22;8.98;;;4.43;;
58972;SDS011;44750;52.040;7.472;2022-08-21T07:40:23;10.90;;;5.32;;
58972;SDS011;44750;52.040;7.472;2022-08-21T07:45:23;13.05;;;5.95;;
58972;SDS011;44750;52.040;7.472;2022-08-21T07:50:24;13.85;;;6.53;;
58972;SDS011;44750;52.040;7.472;2022-08-21T07:55:25;15.38;;;7.47;;
58972;SDS011;44750;52.040;7.472;2022-08-21T08:00:26;15.25;;;7.40;;
58972;SDS011;44750;52.040;7.472;2022-08-21T08:05:28;17.10;;;7.50;;
58972;SDS011;44750;52.040;7.472;2022-08-21T08:10:30;14.93;;;9.05;;
58972;SDS011;44750;52.040;7.472;2022-08-21T08:15:30;14.52;;;8.95;;
58972;SDS011;44750;52.040;7.472;2022-08-21T08:20:31;20.42;;;9.75;;
58972;SDS011;44750;52.040;7.472;2022-08-21T08:25:31;18.75;;;9.43;;
58972;SDS011;44750;52.040;7.472;2022-08-21T08:30:32;18.80;;;9.57;;
58972;SDS011;44750;52.040;7.472;2022-08-21T08:35:32;11.05;;;8.27;;
58972;SDS011;44750;52.040;7.472;2022-08-21T08:40:37;14.73;;;8.07;;
58972;SDS011;44750;52.040;7.472;2022-08-21T08:45:44;17.92;;;8.02;;
58972;SDS011;44750;52.040;7.472;2022-08-21T08:50:49;10.90;;;6.80;;
58972;SDS011;44750;52.040;7.472;2022-08-21T08:55:54;10.95;;;6.65;;
58972;SDS011;44750;52.040;7.472;2022-08-21T09:00:54;11.30;;;6.25;;
58972;SDS011;44750;52.040;7.472;2022-08-21T09:06:11;10.77;;;5.50;;
58972;SDS011;44750;52.040;7.472;2022-08-21T09:11:26;8.63;;;4.60;;
58972;SDS011;44750;52.040;7.472;2022-08-21T09:16:37;13.90;;;4.20;;
58972;SDS011;44750;52.040;7.472;2022-08-21T09:21:49;8.63;;;4.10;;
58972;SDS011;44750;52.040;7.472;2022-08-21T09:32:01;7.28;;;2.83;;
58972;SDS011;44750;52.040;7.472;2022-08-21T09:37:03;12.80;;;4.15;;
58972;SDS011;44750;52.040;7.472;2022-08-21T09:42:05;9.63;;;3.67;;
58972;SDS011;44750;52.040;7.472;2022-08-21T09:47:07;6.93;;;3.00;;
58972;SDS011;44750;52.040;7.472;2022-08-21T09:52:20;11.32;;;3.17;;
58972;SDS011;44750;52.040;7.472;2022-08-21T09:57:26;6.90;;;2.70;;
58972;SDS011;44750;52.040;7.472;2022-08-21T10:02:29;7.03;;;2.40;;
58972;SDS011;44750;52.040;7.472;2022-08-21T10:23:20;6.18;;;2.17;;
58972;SDS011;44750;52.040;7.472;2022-08-21T10:28:49;8.50;;;2.58;;
58972;SDS011;44750;52.040;7.472;2022-08-21T10:39:10;5.38;;;2.72;;
58972;SDS011;44750;52.040;7.472;2022-08-21T10:50:05;5.15;;;3.28;;
58972;SDS011;44750;52.040;7.472;2022-08-21T10:55:16;4.03;;;3.53;;
58972;SDS011;44750;52.040;7.472;2022-08-21T11:00:23;8.07;;;3.72;;
58972;SDS011;44750;52.040;7.472;2022-08-21T11:05:41;6.43;;;3.45;;
58972;SDS011;44750;52.040;7.472;2022-08-21T11:10:53;3.78;;;2.65;;
58972;SDS011;44750;52.040;7.472;2022-08-21T11:16:18;7.53;;;2.80;;
58972;SDS011;44750;52.040;7.472;2022-08-21T11:26:57;5.13;;;2.40;;
58972;SDS011;44750;52.040;7.472;2022-08-21T11:37:17;4.07;;;2.10;;
58972;SDS011;44750;52.040;7.472;2022-08-21T11:42:29;4.85;;;2.08;;
58972;SDS011;44750;52.040;7.472;2022-08-21T11:47:54;4.13;;;1.98;;
58972;SDS011;44750;52.040;7.472;2022-08-21T11:53:09;7.30;;;2.17;;
58972;SDS011;44750;52.040;7.472;2022-08-21T11:58:20;3.05;;;2.03;;
58972;SDS011;44750;52.040;7.472;2022-08-21T12:08:34;2.15;;;1.40;;
58972;SDS011;44750;52.040;7.472;2022-08-21T12:13:37;2.92;;;1.73;;
58972;SDS011;44750;52.040;7.472;2022-08-21T12:19:10;3.47;;;2.03;;
58972;SDS011;44750;52.040;7.472;2022-08-21T12:29:31;5.35;;;2.00;;
58972;SDS011;44750;52.040;7.472;2022-08-21T12:34:35;4.97;;;1.92;;
58972;SDS011;44750;52.040;7.472;2022-08-21T12:39:38;3.42;;;2.10;;
58972;SDS011;44750;52.040;7.472;2022-08-21T12:44:51;3.58;;;1.98;;
58972;SDS011;44750;52.040;7.472;2022-08-21T12:50:00;4.10;;;1.80;;
58972;SDS011;44750;52.040;7.472;2022-08-21T12:55:10;3.25;;;1.60;;
58972;SDS011;44750;52.040;7.472;2022-08-21T13:00:12;4.20;;;1.95;;
58972;SDS011;44750;52.040;7.472;2022-08-21T13:05:15;4.38;;;1.85;;
58972;SDS011;44750;52.040;7.472;2022-08-21T13:10:23;3.53;;;1.85;;
58972;SDS011;44750;52.040;7.472;2022-08-21T13:15:34;2.95;;;1.75;;
58972;SDS011;44750;52.040;7.472;2022-08-21T13:20:38;6.45;;;1.90;;
58972;SDS011;44750;52.040;7.472;2022-08-21T13:25:39;4.00;;;1.90;;
58972;SDS011;44750;52.040;7.472;2022-08-21T13:30:41;4.45;;;2.00;;
58972;SDS011;44750;52.040;7.472;2022-08-21T13:40:57;3.72;;;1.85;;
58972;SDS011;44750;52.040;7.472;2022-08-21T13:46:02;3.47;;;1.77;;
58972;SDS011;44750;52.040;7.472;2022-08-21T13:51:09;4.30;;;2.10;;
58972;SDS011;44750;52.040;7.472;2022-08-21T13:56:21;5.93;;;2.05;;
58972;SDS011;44750;52.040;7.472;2022-08-21T14:01:33;5.65;;;2.30;;
58972;SDS011;44750;52.040;7.472;2022-08-21T14:06:37;4.63;;;1.80;;
58972;SDS011;44750;52.040;7.472;2022-08-21T14:11:38;4.70;;;2.42;;
58972;SDS011;44750;52.040;7.472;2022-08-21T14:16:43;3.75;;;2.15;;
58972;SDS011;44750;52.040;7.472;2022-08-21T14:21:46;4.38;;;2.17;;
58972;SDS011;44750;52.040;7.472;2022-08-21T14:26:49;5.05;;;2.28;;
58972;SDS011;44750;52.040;7.472;2022-08-21T14:31:52;4.43;;;2.03;;
58972;SDS011;44750;52.040;7.472;2022-08-21T14:41:55;9.03;;;3.00;;
58972;SDS011;44750;52.040;7.472;2022-08-21T14:46:58;6.63;;;2.40;;
58972;SDS011;44750;52.040;7.472;2022-08-21T14:51:59;4.25;;;2.25;;
58972;SDS011;44750;52.040;7.472;2022-08-21T14:57:08;6.70;;;3.15;;
58972;SDS011;44750;52.040;7.472;2022-08-21T15:02:10;6.32;;;2.22;;
58972;SDS011;44750;52.040;7.472;2022-08-21T15:07:12;5.67;;;2.30;;
58972;SDS011;44750;52.040;7.472;2022-08-21T15:12:12;5.47;;;2.22;;
58972;SDS011;44750;52.040;7.472;2022-08-21T15:17:13;6.07;;;2.65;;
58972;SDS011;44750;52.040;7.472;2022-08-21T15:22:14;5.60;;;2.63;;
58972;SDS011;44750;52.040;7.472;2022-08-21T15:27:14;3.35;;;1.90;;
58972;SDS011;44750;52.040;7.472;2022-08-21T15:32:21;4.67;;;2.00;;
58972;SDS011;44750;52.040;7.472;2022-08-21T15:37:26;5.43;;;2.65;;
58972;SDS011;44750;52.040;7.472;2022-08-21T15:42:26;5.55;;;2.20;;
58972;SDS011;44750;52.040;7.472;2022-08-21T15:47:31;5.18;;;2.35;;
58972;SDS011;44750;52.040;7.472;2022-08-21T15:52:33;5.78;;;2.45;;
58972;SDS011;44750;52.040;7.472;2022-08-21T15:57:35;4.45;;;2.35;;
58972;SDS011;44750;52.040;7.472;2022-08-21T16:02:37;6.70;;;3.35;;
58972;SDS011;44750;52.040;7.472;2022-08-21T16:07:40;7.75;;;3.50;;
58972;SDS011;44750;52.040;7.472;2022-08-21T16:12:42;5.10;;;2.38;;
58972;SDS011;44750;52.040;7.472;2022-08-21T16:17:46;8.77;;;3.63;;
58972;SDS011;44750;52.040;7.472;2022-08-21T16:22:47;7.63;;;3.63;;
58972;SDS011;44750;52.040;7.472;2022-08-21T16:27:49;5.75;;;3.50;;
58972;SDS011;44750;52.040;7.472;2022-08-21T16:32:53;4.32;;;2.80;;
58972;SDS011;44750;52.040;7.472;2022-08-21T16:37:54;5.10;;;2.95;;
58972;SDS011;44750;52.040;7.472;2022-08-21T16:42:54;13.75;;;7.43;;
58972;SDS011;44750;52.040;7.472;2022-08-21T16:47:54;3.42;;;2.30;;
58972;SDS011;44750;52.040;7.472;2022-08-21T16:52:54;4.82;;;1.88;;
58972;SDS011;44750;52.040;7.472;2022-08-21T16:57:55;7.80;;;2.95;;
58972;SDS011;44750;52.040;7.472;2022-08-21T17:02:55;5.03;;;2.63;;
58972;SDS011;44750;52.040;7.472;2022-08-21T17:07:57;5.03;;;2.75;;
58972;SDS011;44750;52.040;7.472;2022-08-21T17:12:57;3.88;;;2.00;;
58972;SDS011;44750;52.040;7.472;2022-08-21T17:17:58;7.53;;;4.03;;
58972;SDS011;44750;52.040;7.472;2022-08-21T17:22:58;5.53;;;2.95;;
58972;SDS011;44750;52.040;7.472;2022-08-21T17:27:59;6.70;;;1.98;;
58972;SDS011;44750;52.040;7.472;2022-08-21T17:33:00;4.75;;;2.10;;
58972;SDS011;44750;52.040;7.472;2022-08-21T17:38:00;3.80;;;2.30;;
58972;SDS011;44750;52.040;7.472;2022-08-21T17:43:01;3.35;;;1.95;;
58972;SDS011;44750;52.040;7.472;2022-08-21T17:48:01;6.60;;;1.70;;
58972;SDS011;44750;52.040;7.472;2022-08-21T17:53:03;4.88;;;1.77;;
58972;SDS011;44750;52.040;7.472;2022-08-21T17:58:03;5.32;;;1.90;;
58972;SDS011;44750;52.040;7.472;2022-08-21T18:03:05;4.78;;;1.58;;
58972;SDS011;44750;52.040;7.472;2022-08-21T18:08:09;5.28;;;2.15;;
58972;SDS011;44750;52.040;7.472;2022-08-21T18:13:10;4.20;;;1.83;;
58972;SDS011;44750;52.040;7.472;2022-08-21T18:18:14;5.65;;;2.42;;
58972;SDS011;44750;52.040;7.472;2022-08-21T18:23:14;5.68;;;2.08;;
58972;SDS011;44750;52.040;7.472;2022-08-21T18:28:14;7.00;;;2.00;;
58972;SDS011;44750;52.040;7.472;2022-08-21T18:33:15;6.45;;;2.35;;
58972;SDS011;44750;52.040;7.472;2022-08-21T18:38:17;3.58;;;2.05;;
58972;SDS011;44750;52.040;7.472;2022-08-21T18:43:18;4.15;;;2.63;;
58972;SDS011;44750;52.040;7.472;2022-08-21T18:48:20;4.87;;;3.07;;
58972;SDS011;44750;52.040;7.472;2022-08-21T18:53:22;4.25;;;2.35;;
58972;SDS011;44750;52.040;7.472;2022-08-21T18:58:22;4.57;;;2.08;;
58972;SDS011;44750;52.040;7.472;2022-08-21T19:03:23;11.93;;;2.47;;
58972;SDS011;44750;52.040;7.472;2022-08-21T19:08:26;5.38;;;2.58;;
58972;SDS011;44750;52.040;7.472;2022-08-21T19:13:27;4.88;;;2.80;;
58972;SDS011;44750;52.040;7.472;2022-08-21T19:18:28;5.82;;;3.08;;
58972;SDS011;44750;52.040;7.472;2022-08-21T19:23:30;5.75;;;2.78;;
58972;SDS011;44750;52.040;7.472;2022-08-21T19:28:32;9.17;;;3.30;;
58972;SDS011;44750;52.040;7.472;2022-08-21T19:33:36;9.43;;;3.13;;
58972;SDS011;44750;52.040;7.472;2022-08-21T19:38:38;11.55;;;3.72;;
58972;SDS011;44750;52.040;7.472;2022-08-21T19:43:41;6.60;;;2.72;;
58972;SDS011;44750;52.040;7.472;2022-08-21T19:48:52;7.72;;;3.10;;
58972;SDS011;44750;52.040;7.472;2022-08-21T19:53:53;8.68;;;3.20;;
58972;SDS011;44750;52.040;7.472;2022-08-21T19:58:55;9.30;;;3.97;;
58972;SDS011;44750;52.040;7.472;2022-08-21T20:03:56;9.85;;;3.65;;
58972;SDS011;44750;52.040;7.472;2022-08-21T20:08:56;9.60;;;3.57;;
58972;SDS011;44750;52.040;7.472;2022-08-21T20:13:57;11.18;;;5.97;;
58972;SDS011;44750;52.040;7.472;2022-08-21T20:18:58;8.25;;;4.40;;
58972;SDS011;44750;52.040;7.472;2022-08-21T20:23:59;8.65;;;4.82;;
58972;SDS011;44750;52.040;7.472;2022-08-21T20:29:00;11.38;;;4.60;;
58972;SDS011;44750;52.040;7.472;2022-08-21T20:34:01;8.77;;;4.78;;
58972;SDS011;44750;52.040;7.472;2022-08-21T20:39:02;11.88;;;5.05;;
58972;SDS011;44750;52.040;7.472;2022-08-21T20:44:03;13.77;;;5.15;;
58972;SDS011;44750;52.040;7.472;2022-08-21T20:49:03;9.53;;;4.60;;
58972;SDS011;44750;52.040;7.472;2022-08-21T21:04:58;7.60;;;4.60;;
58972;SDS011;44750;52.040;7.472;2022-08-21T21:09:59;12.25;;;5.32;;
58972;SDS011;44750;52.040;7.472;2022-08-21T21:15:27;10.15;;;5.25;;
58972;SDS011;44750;52.040;7.472;2022-08-21T21:26:04;10.30;;;4.95;;
58972;SDS011;44750;52.040;7.472;2022-08-21T21:31:11;9.85;;;5.82;;
58972;SDS011;44750;52.040;7.472;2022-08-21T22:13:18;14.63;;;5.38;;
58972;SDS011;44750;52.040;7.472;2022-08-21T22:18:31;10.75;;;5.20;;
58972;SDS011;44750;52.040;7.472;2022-08-21T22:23:56;9.30;;;5.30;;
58972;SDS011;44750;52.040;7.472;2022-08-21T22:29:01;11.55;;;4.90;;
58972;SDS011;44750;52.040;7.472;2022-08-21T22:39:11;13.20;;;5.25;;
58972;SDS011;44750;52.040;7.472;2022-08-21T22:44:22;11.48;;;4.80;;
58972;SDS011;44750;52.040;7.472;2022-08-21T22:49:29;11.27;;;4.35;;
58972;SDS011;44750;52.040;7.472;2022-08-21T22:54:42;7.53;;;4.47;;
58972;SDS011;44750;52.040;7.472;2022-08-21T22:59:59;10.55;;;4.45;;
58972;SDS011;44750;52.040;7.472;2022-08-21T23:05:15;10.15;;;4.28;;
58972;SDS011;44750;52.040;7.472;2022-08-21T23:15:30;13.65;;;4.55;;
58972;SDS011;44750;52.040;7.472;2022-08-21T23:20:41;10.70;;;4.72;;
58972;SDS011;44750;52.040;7.472;2022-08-21T23:31:42;10.30;;;4.47;;
58972;SDS011;44750;52.040;7.472;2022-08-21T23:36:56;12.25;;;5.07;;
